ASN logo
Accident
Last updated: 21 October 2017
Statuts:Préliminaire
Date:samedi 18 janvier 2014
Heure:04:30
Type/Sous-type:Silhouette image of generic DC93 model; specific model in this crash may look slightly different
McDonnell Douglas DC-9-33RC
Compagnie:Aeronaves TSM
Immatriculation: XA-UQM
Numéro de série: 47191/280
Année de Fabrication: 1968-02-28 (45 years 11 months)
Moteurs: 2 Pratt & Whitney JT8D-9A
Equipage:victimes: 0 / à bord:
Passagers:victimes: 0 / à bord:
Total:victimes: 0 / à bord:
Dégats de l'appareil: Substantiels
Conséquences: Written off (damaged beyond repair)
Lieu de l'accident:Saltillo-Plan de Guadalupe International Airport (SLW) (   Mexique)
Phase de vol: A l'atterrissage (LDG)
Nature:Cargo
Aéroport de départ:Tapachula International Airport (TAP/MMTP), Mexique
Aéroport de destination:Saltillo-Plan de Guadalupe International Airport (SLW/MMIO), Mexique
Détails:
A McDonnell Douglas DC-9-33RC cargo plane was damaged in a landing accident at Saltillo Airport, Mexico.
The airplane originated in Tapachula, Mexico and operated on a domestic cargo flight to Saltillo. The airplane's nose gear collapsed after it departed the paved surface of the runway.

Sources:
» Zocalo Saltillo

METAR Weather report:
09:45 UTC / 03:45 local time:
MMIO 180945Z 00000KT 1/2SM FG OVC003 05/04 A3028 RMK 8/5//

10:28 UTC / 04:28 local time:
MMIO 181028Z 00000KT 1/2SM FG OVC003 05/04 A3028 RMK 8/5//
Wind calm; Visibility: 0,5 miles (800 m) in fog; overcast cloud deck at 300 feet AGL; Temperature: +5°C, Dew point: +4°C; Pressure: 30.28 inches Hg.


Photos

Add your photo of this accident or aircraft

Video, social media

Plan
Ce plan montre l'aéroport de départ ainsi que la supposée destination du vol. La ligne fixe reliant les deux aéroports n'est pas le plan de vol exact.
La distance entre Tapachula International Airport et Saltillo-Plan de Guadalupe International Airport est de 1483 km (927 miles).

Les informations ci-dessus ne représentent pas l'opinion de la 'Flight Safety Foundation' ou de 'Aviation Safety Network' sur les causes de l'accident. Ces informations prélimimaires sont basées sur les faits tel qu'ils sont connus à ce jour.
languages: languages

Share